»·PEaware :: SWA509 KPHX-KSAN

SWA509 :: KPHX-KSAN

FLIGHT INFORMATION

Flight Status: Arrived
Operator:
Southwest Airlines
More flights by this operator :: More flights under this callsign
Pilot: Steve F. (26981)
Aircraft: BOEING 737-900
(B739)
More flights by this aircraft type
Origin: KPHX Phoenix Sky Harbor Intl
United States
Destination: KSAN San Diego Intl-Lindbergh
United States
More flights between these airports :: More routes between these airports
Route: FYRBD1 MOHAK J2 IPL TOPGN2
File this flight plan on PilotEdge
Remarks:
Altitude:
(Current/Filed)
26,000ft
Speed:
(Current/Filed)
453kts
Departed: 16-Oct-23 01:19 PM
Arrived: 16-Oct-23 02:19 PM
Distance/Time
Traveled:
264nm/1:00
Distance/Time
To Go:
Arrived

Flight Plot

Page will automatically refresh every two minutes.

Flight plan parsing failed; only flown route is shown


Map Options




Map Legend


Flown Route
Filed Route
Departure Airport
Arrival Airport
Navaid (VOR, NDB)
Fix

Horizontal Profiles

Position Reports

Time Latitude Longitude Heading Altitude Ground
Speed
16-Oct-23 12:59 33.434398 -111.996160 270 1143ft 0kts
16-Oct-23 13:00 33.434398 -111.996160 270 1143ft 0kts
16-Oct-23 13:01 33.434398 -111.996160 270 1143ft 0kts
16-Oct-23 13:02 33.434398 -111.996160 270 1143ft 0kts
16-Oct-23 13:03 33.434398 -111.996160 270 1143ft 0kts
16-Oct-23 13:04 33.434398 -111.996160 270 1143ft 0kts
16-Oct-23 13:05 33.434398 -111.996160 270 1143ft 0kts
16-Oct-23 13:06 33.434398 -111.996160 270 1143ft 0kts
16-Oct-23 13:07 33.434398 -111.996160 270 1143ft 0kts
16-Oct-23 13:08 33.434398 -111.996160 270 1143ft 0kts
16-Oct-23 13:09 33.434395 -111.995533 270 1143ft 2kts
16-Oct-23 13:10 33.434395 -111.995502 270 1143ft 0kts
16-Oct-23 13:11 33.434395 -111.995502 270 1143ft 0kts
16-Oct-23 13:12 33.432931 -111.995920 236 1143ft 10kts
16-Oct-23 13:13 33.432836 -112.001800 270 1143ft 24kts
16-Oct-23 13:14 33.432831 -112.011307 270 1143ft 30kts
16-Oct-23 13:15 33.432846 -112.019813 270 1143ft 22kts
16-Oct-23 13:16 33.432628 -112.027004 189 1143ft 12kts
16-Oct-23 13:17 33.431033 -112.025596 90 1143ft 29kts
16-Oct-23 13:18 33.431059 -111.983350 87 1955ft 173kts
16-Oct-23 13:19 33.433341 -111.920294 86 4008ft 204kts
16-Oct-23 13:20 33.418850 -111.853455 147 6179ft 239kts
16-Oct-23 13:21 33.354408 -111.866759 234 8824ft 264kts
16-Oct-23 13:22 33.357781 -111.952355 281 11773ft 277kts
16-Oct-23 13:23 33.345112 -112.048807 235 13220ft 339kts
16-Oct-23 13:24 33.282901 -112.147351 232 14484ft 394kts
16-Oct-23 13:25 33.216276 -112.254323 233 16825ft 408kts
16-Oct-23 13:26 33.147647 -112.365475 233 18854ft 424kts
16-Oct-23 13:27 33.077243 -112.480134 232 20789ft 434kts
16-Oct-23 13:28 33.004246 -112.597288 232 22473ft 446kts
16-Oct-23 13:29 32.948632 -112.729673 256 23899ft 460kts
16-Oct-23 13:30 32.927995 -112.881509 260 25283ft 468kts
16-Oct-23 13:31 32.907055 -113.035509 259 25951ft 474kts
16-Oct-23 13:32 32.886226 -113.190192 259 25956ft 472kts
16-Oct-23 13:33 32.865198 -113.344099 260 25951ft 472kts
16-Oct-23 13:34 32.843588 -113.498165 259 25948ft 472kts
16-Oct-23 13:35 32.821711 -113.651816 259 25946ft 472kts
16-Oct-23 13:36 32.799903 -113.805800 259 25943ft 472kts
16-Oct-23 13:37 32.778120 -113.959390 261 25942ft 471kts
16-Oct-23 13:38 32.775035 -114.114663 268 25941ft 471kts
16-Oct-23 13:39 32.772782 -114.270492 268 25940ft 471kts
16-Oct-23 13:40 32.770762 -114.425993 268 25940ft 472kts
16-Oct-23 13:41 32.768429 -114.582233 268 25940ft 472kts
16-Oct-23 13:42 32.765948 -114.737511 268 25941ft 471kts
16-Oct-23 13:43 32.762745 -114.893174 268 25944ft 470kts
16-Oct-23 13:44 32.759492 -115.047897 268 25335ft 467kts
16-Oct-23 13:45 32.756394 -115.201142 268 24535ft 463kts
16-Oct-23 13:46 32.752770 -115.353217 268 23960ft 455kts
16-Oct-23 13:47 32.749319 -115.491298 268 23942ft 394kts
16-Oct-23 13:48 32.739094 -115.621791 263 22758ft 396kts
16-Oct-23 13:49 32.727520 -115.749701 263 20959ft 384kts
16-Oct-23 13:50 32.715973 -115.873831 263 19245ft 372kts
16-Oct-23 13:51 32.704727 -115.994037 263 17543ft 360kts
16-Oct-23 13:52 32.694440 -116.110727 263 15847ft 353kts
16-Oct-23 13:53 32.684157 -116.225241 263 14248ft 344kts
16-Oct-23 13:54 32.673898 -116.337149 263 13034ft 340kts
16-Oct-23 13:55 32.663474 -116.445491 260 11785ft 325kts
16-Oct-23 13:56 32.648061 -116.549375 259 10088ft 315kts
16-Oct-23 13:57 32.634825 -116.649885 260 8700ft 299kts
16-Oct-23 13:58 32.622608 -116.745814 260 7982ft 294kts
16-Oct-23 13:59 32.611313 -116.841480 264 7284ft 291kts
16-Oct-23 14:00 32.603174 -116.936234 263 6629ft 286kts
16-Oct-23 14:01 32.610996 -117.028761 285 6020ft 284kts
16-Oct-23 14:02 32.630235 -117.118140 284 5067ft 269kts
16-Oct-23 14:03 32.646225 -117.197597 281 4981ft 233kts
16-Oct-23 14:04 32.659038 -117.274123 281 4146ft 234kts
16-Oct-23 14:05 32.671506 -117.348630 281 3242ft 227kts
16-Oct-23 14:06 32.683729 -117.420930 282 2920ft 223kts
16-Oct-23 14:07 32.695930 -117.493820 281 2917ft 224kts
16-Oct-23 14:09 32.730573 -117.619424 341 2818ft 216kts
16-Oct-23 14:10 32.776170 -117.588715 56 1965ft 196kts
16-Oct-23 14:11 32.786204 -117.525451 81 1931ft 201kts
16-Oct-23 14:12 32.793322 -117.459610 87 1922ft 200kts
16-Oct-23 14:13 32.783158 -117.394917 105 1921ft 200kts
16-Oct-23 14:14 32.768870 -117.335418 105 1934ft 178kts
16-Oct-23 14:15 32.755241 -117.279138 105 1465ft 169kts
16-Oct-23 14:16 32.742443 -117.226347 105 500ft 164kts
16-Oct-23 14:17 32.732214 -117.184198 104 23ft 50kts
16-Oct-23 14:18 32.730905 -117.183026 286 23ft 12kts
16-Oct-23 14:19 32.732448 -117.189332 286 23ft 25kts
16-Oct-23 14:20 32.732383 -117.194836 235 23ft 10kts
16-Oct-23 14:21 32.732515 -117.195487 313 23ft 0kts

Navigation Log

Ident Type
Flight plan parsing failed, navigation log unavailable